createdAt,value
2018-05-14T00:00:39.434Z,14.10
2018-05-14T00:03:43.494Z,14.11
2018-05-14T00:06:46.751Z,14.10
2018-05-14T00:09:50.769Z,14.08
2018-05-14T00:12:54.261Z,14.12
2018-05-14T00:15:58.291Z,14.07
2018-05-14T00:19:01.537Z,13.98
2018-05-14T00:22:04.789Z,13.94
2018-05-14T00:25:08.073Z,13.93
2018-05-14T00:28:12.195Z,13.92
2018-05-14T00:31:15.461Z,13.85
2018-05-14T00:34:18.714Z,13.80
2018-05-14T00:37:21.966Z,13.71
2018-05-14T00:40:25.993Z,13.67
2018-05-14T00:43:30.030Z,13.65
2018-05-14T00:46:33.315Z,13.64
2018-05-14T00:49:37.075Z,13.52
2018-05-14T00:52:40.346Z,13.44
2018-05-14T00:55:44.365Z,13.30
2018-05-14T00:58:47.631Z,13.32
2018-05-14T01:01:51.659Z,13.29
2018-05-14T01:04:54.952Z,13.34
2018-05-14T01:07:58.230Z,13.34
2018-05-14T01:11:02.257Z,13.29
2018-05-14T01:14:05.515Z,13.28
2018-05-14T01:17:08.774Z,13.31
2018-05-14T01:20:12.022Z,13.42
2018-05-14T01:23:15.357Z,13.51
2018-05-14T01:26:18.626Z,13.54
2018-05-14T01:29:22.649Z,13.61
2018-05-14T01:32:26.707Z,13.64
2018-05-14T01:35:30.117Z,13.57
2018-05-14T01:38:33.382Z,13.70
2018-05-14T01:41:36.649Z,13.70
2018-05-14T01:44:39.916Z,13.71
2018-05-14T01:47:43.175Z,13.50
2018-05-14T01:50:48.221Z,13.27
2018-05-14T01:53:51.509Z,13.27
2018-05-14T01:56:54.774Z,13.37
2018-05-14T01:59:58.790Z,13.30
2018-05-14T02:03:02.843Z,13.31
2018-05-14T02:06:06.102Z,13.35
2018-05-14T02:09:09.362Z,13.44
2018-05-14T02:12:12.634Z,13.44
2018-05-14T02:15:15.885Z,13.46
2018-05-14T02:18:19.147Z,13.50
2018-05-14T02:21:23.187Z,13.49
2018-05-14T02:24:26.444Z,13.61
2018-05-14T02:27:29.703Z,13.54
2018-05-14T02:30:33.804Z,13.50
2018-05-14T02:33:37.246Z,13.30
2018-05-14T02:36:40.507Z,13.29
2018-05-14T02:39:43.763Z,13.30
2018-05-14T02:42:47.081Z,13.36
2018-05-14T02:45:50.377Z,13.51
2018-05-14T02:48:53.634Z,13.63
2018-05-14T02:51:56.926Z,13.61
2018-05-14T02:55:00.195Z,13.62
2018-05-14T02:58:04.287Z,13.74
2018-05-14T03:01:07.561Z,13.77
2018-05-14T03:04:10.830Z,13.79
2018-05-14T03:07:14.098Z,13.73
2018-05-14T03:10:17.415Z,13.74
2018-05-14T03:13:21.477Z,13.79
2018-05-14T03:16:24.770Z,13.79
2018-05-14T03:19:28.153Z,13.84
2018-05-14T03:22:31.433Z,13.83
2018-05-14T03:25:34.722Z,13.76
2018-05-14T03:28:38.847Z,13.80
2018-05-14T03:31:42.882Z,13.81
2018-05-14T03:34:46.145Z,13.87
2018-05-14T03:37:49.419Z,13.92
2018-05-14T03:40:52.674Z,13.86
2018-05-14T03:43:56.799Z,13.92
2018-05-14T03:47:00.078Z,13.89
2018-05-14T03:50:04.122Z,13.94
2018-05-14T03:53:07.402Z,13.97
2018-05-14T03:56:11.426Z,13.99
2018-05-14T03:59:32.458Z,14.06
2018-05-14T04:02:53.498Z,14.15
2018-05-14T04:06:14.495Z,14.10
2018-05-14T04:09:17.782Z,14.15
2018-05-14T04:12:21.071Z,14.13
2018-05-14T04:15:25.094Z,14.10
2018-05-14T04:18:29.132Z,14.19
2018-05-14T04:21:32.456Z,14.19
2018-05-14T04:24:35.725Z,14.28
2018-05-14T04:27:39.006Z,14.31
2018-05-14T04:30:43.037Z,14.35
2018-05-14T04:33:46.303Z,14.39
2018-05-14T04:36:50.354Z,14.33
2018-05-14T04:39:53.683Z,14.32
2018-05-14T04:42:56.958Z,14.48
2018-05-14T04:46:00.255Z,14.65
2018-05-14T04:49:04.316Z,14.44
2018-05-14T04:52:07.808Z,14.52
2018-05-14T04:55:11.221Z,14.41
2018-05-14T04:58:14.541Z,14.50
2018-05-14T05:01:17.942Z,14.49
2018-05-14T05:04:21.605Z,14.38
2018-05-14T05:07:25.651Z,14.45
2018-05-14T05:10:29.013Z,14.62
2018-05-14T05:13:32.238Z,14.43
2018-05-14T05:16:35.531Z,14.59
2018-05-14T05:19:39.566Z,14.64
2018-05-14T05:22:42.954Z,14.77
2018-05-14T05:25:46.145Z,14.75
2018-05-14T05:28:49.427Z,14.94
2018-05-14T05:31:52.702Z,14.94
2018-05-14T05:34:56.738Z,14.95
2018-05-14T05:38:00.062Z,14.91
2018-05-14T05:41:04.069Z,14.93
2018-05-14T05:44:07.387Z,14.95
2018-05-14T05:47:10.658Z,14.98
2018-05-14T05:50:14.701Z,15.13
2018-05-14T05:53:17.966Z,15.23
2018-05-14T05:56:21.227Z,15.08
2018-05-14T05:59:24.491Z,15.12
2018-05-14T06:02:27.827Z,15.27
2018-05-14T06:05:31.918Z,15.25
2018-05-14T06:08:35.210Z,15.33
2018-05-14T06:11:38.526Z,15.41
2018-05-14T06:14:41.791Z,15.29
2018-05-14T06:17:45.815Z,15.27
2018-05-14T06:20:49.857Z,15.44
2018-05-14T06:23:53.251Z,15.44
2018-05-14T06:26:56.568Z,15.45
2018-05-14T06:29:59.836Z,15.37
2018-05-14T06:33:03.097Z,15.64
2018-05-14T06:36:07.130Z,15.69
2018-05-14T06:39:10.402Z,15.16
2018-05-14T06:42:15.162Z,15.14
2018-05-14T06:45:18.423Z,15.18
2018-05-14T06:48:21.705Z,15.79
2018-05-14T06:51:24.992Z,15.71
2018-05-14T06:54:29.943Z,15.76
2018-05-14T06:57:33.198Z,15.70
2018-05-14T07:00:37.990Z,15.49
2018-05-14T07:03:41.267Z,15.62
2018-05-14T07:06:45.298Z,15.89
2018-05-14T07:09:48.573Z,16.27
2018-05-14T07:12:52.618Z,16.39
2018-05-14T07:15:55.888Z,17.02
2018-05-14T07:19:00.538Z,16.44
2018-05-14T07:22:04.661Z,17.16
2018-05-14T07:25:08.682Z,17.33
2018-05-14T07:28:12.733Z,17.45
2018-05-14T07:31:16.137Z,16.84
2018-05-14T07:34:19.437Z,17.26
2018-05-14T07:37:22.774Z,16.63
2018-05-14T07:40:26.118Z,17.12
2018-05-14T07:43:31.100Z,18.23
2018-05-14T07:46:34.390Z,18.67
2018-05-14T07:49:37.720Z,18.62
2018-05-14T07:52:41.846Z,19.01
2018-05-14T07:55:45.097Z,18.95
2018-05-14T07:58:48.357Z,19.09
2018-05-14T08:01:51.627Z,17.83
2018-05-14T08:04:55.755Z,18.07
2018-05-14T08:07:59.778Z,18.12
2018-05-14T08:11:03.810Z,17.83
2018-05-14T08:14:07.957Z,17.79
2018-05-14T08:17:11.226Z,17.17
2018-05-14T08:20:14.954Z,17.93
2018-05-14T08:23:18.987Z,18.35
2018-05-14T08:26:22.263Z,19.47
2018-05-14T08:29:25.591Z,18.84
2018-05-14T08:32:28.889Z,18.56
2018-05-14T08:35:33.073Z,19.48
2018-05-14T08:38:36.338Z,19.23
2018-05-14T08:41:40.585Z,18.69
2018-05-14T08:44:43.856Z,18.91
2018-05-14T08:47:48.087Z,19.14
2018-05-14T08:50:51.381Z,18.88
2018-05-14T08:53:55.410Z,18.39
2018-05-14T08:56:59.446Z,19.46
2018-05-14T09:00:02.728Z,19.39
2018-05-14T09:03:05.981Z,19.10
2018-05-14T09:06:09.245Z,19.24
2018-05-14T09:09:13.324Z,19.26
2018-05-14T09:12:16.630Z,19.92
2018-05-14T09:15:19.897Z,20.23
2018-05-14T09:18:23.203Z,19.95
2018-05-14T09:21:26.413Z,19.22
2018-05-14T09:24:29.691Z,19.37
2018-05-14T09:27:33.763Z,19.18
2018-05-14T09:30:37.025Z,20.25
2018-05-14T09:33:40.329Z,19.85
2018-05-14T09:36:43.602Z,20.65
2018-05-14T09:39:46.880Z,19.83
2018-05-14T09:42:50.131Z,20.25
2018-05-14T09:45:54.260Z,20.31
2018-05-14T09:48:57.553Z,19.87
2018-05-14T09:52:00.879Z,19.14
2018-05-14T09:55:04.179Z,19.54
2018-05-14T09:58:07.474Z,19.47
2018-05-14T10:01:10.742Z,19.42
2018-05-14T10:04:14.008Z,19.47
2018-05-14T10:07:17.268Z,19.63
2018-05-14T10:10:21.395Z,19.54
2018-05-14T10:13:24.682Z,20.16
2018-05-14T10:16:28.882Z,20.11
2018-05-14T10:19:32.296Z,19.52
2018-05-14T10:22:36.474Z,20.09
2018-05-14T10:25:40.529Z,20.22
2018-05-14T10:28:43.798Z,20.28
2018-05-14T10:31:47.868Z,19.37
2018-05-14T10:34:51.322Z,19.36
2018-05-14T10:37:54.725Z,19.79
2018-05-14T10:40:59.057Z,20.42
2018-05-14T10:44:02.312Z,21.28
2018-05-14T10:47:05.694Z,21.34
2018-05-14T10:50:08.957Z,21.31
2018-05-14T10:53:12.978Z,21.75
2018-05-14T10:56:16.382Z,20.44
2018-05-14T10:59:19.736Z,21.39
2018-05-14T11:02:23.831Z,21.62
2018-05-14T11:05:27.179Z,21.12
2018-05-14T11:08:30.485Z,20.60
2018-05-14T11:11:34.539Z,20.82
2018-05-14T11:14:38.033Z,20.44
2018-05-14T11:17:41.312Z,20.98
2018-05-14T11:20:45.431Z,21.40
2018-05-14T11:23:49.461Z,21.18
2018-05-14T11:26:53.582Z,20.56
2018-05-14T11:29:57.716Z,20.67
2018-05-14T11:33:00.982Z,20.30
2018-05-14T11:36:04.282Z,20.61
2018-05-14T11:39:07.582Z,20.83
2018-05-14T11:42:10.890Z,21.48
2018-05-14T11:45:15.041Z,21.62
2018-05-14T11:48:19.152Z,21.78
2018-05-14T11:51:22.536Z,22.00
2018-05-14T11:54:25.814Z,21.93
2018-05-14T11:57:29.081Z,21.82
2018-05-14T12:00:32.346Z,21.29
2018-05-14T12:03:35.606Z,21.25
2018-05-14T12:06:38.868Z,21.28
2018-05-14T12:09:43.057Z,21.20
2018-05-14T12:12:46.473Z,21.40
2018-05-14T12:15:49.742Z,21.38
2018-05-14T12:18:53.008Z,21.60
2018-05-14T12:21:56.334Z,21.74
2018-05-14T12:24:59.636Z,21.42
2018-05-14T12:28:02.913Z,21.47
2018-05-14T12:31:06.956Z,21.33
2018-05-14T12:34:10.309Z,21.85
2018-05-14T12:37:14.446Z,22.00
2018-05-14T12:40:18.553Z,22.33
2018-05-14T12:43:22.025Z,22.83
2018-05-14T12:46:26.613Z,22.53
2018-05-14T12:49:30.678Z,22.72
2018-05-14T12:52:33.965Z,22.73
2018-05-14T12:55:37.494Z,22.24
2018-05-14T12:58:40.768Z,22.39
2018-05-14T13:01:44.070Z,22.31
2018-05-14T13:04:47.404Z,21.99
2018-05-14T13:07:50.735Z,22.33
2018-05-14T13:10:54.288Z,22.65
2018-05-14T13:13:57.648Z,22.46
2018-05-14T13:17:00.983Z,22.26
2018-05-14T13:20:04.297Z,21.53
2018-05-14T13:23:07.803Z,21.57
2018-05-14T13:26:11.194Z,21.93
2018-05-14T13:29:15.314Z,22.28
2018-05-14T13:32:46.132Z,22.28
2018-05-14T13:35:53.558Z,22.08
2018-05-14T13:38:57.653Z,21.88
2018-05-14T13:42:01.794Z,22.08
2018-05-14T13:45:05.835Z,21.73
2018-05-14T13:48:09.314Z,21.55
2018-05-14T13:51:13.515Z,21.48
2018-05-14T13:54:16.817Z,21.77
2018-05-14T13:57:20.176Z,21.73
2018-05-14T14:00:23.552Z,22.18
2018-05-14T14:03:27.728Z,22.31
2018-05-14T14:06:31.071Z,22.05
2018-05-14T14:09:35.931Z,22.13
2018-05-14T14:12:39.519Z,21.65
2018-05-14T14:15:42.827Z,21.47
2018-05-14T14:18:46.845Z,21.57
2018-05-14T14:21:50.908Z,21.45
2018-05-14T14:24:54.341Z,21.56
2018-05-14T14:27:57.674Z,21.46
2018-05-14T14:31:01.730Z,21.62
2018-05-14T14:34:05.057Z,22.15
2018-05-14T14:37:08.395Z,22.21
2018-05-14T14:40:12.469Z,22.62
2018-05-14T14:43:15.771Z,22.79
2018-05-14T14:46:19.078Z,22.58
2018-05-14T14:49:23.159Z,22.70
2018-05-14T14:52:28.025Z,22.78
2018-05-14T14:55:31.272Z,22.57
2018-05-14T14:58:35.324Z,22.01
2018-05-14T15:01:38.625Z,21.64
2018-05-14T15:04:41.958Z,21.36
2018-05-14T15:07:45.232Z,20.55
2018-05-14T15:10:48.514Z,19.89
2018-05-14T15:13:52.575Z,19.01
2018-05-14T15:16:56.269Z,18.36
2018-05-14T15:19:59.619Z,17.90
2018-05-14T15:23:02.882Z,17.30
2018-05-14T15:26:06.517Z,16.95
2018-05-14T15:29:11.378Z,16.98
2018-05-14T15:32:14.714Z,16.97
2018-05-14T15:35:18.203Z,17.06
2018-05-14T15:38:21.514Z,17.17
2018-05-14T15:41:24.801Z,17.26
2018-05-14T15:44:28.154Z,17.33
2018-05-14T15:47:31.418Z,17.31
2018-05-14T15:50:34.754Z,17.37
2018-05-14T15:53:38.050Z,17.50
2018-05-14T15:56:41.389Z,17.64
2018-05-14T15:59:45.442Z,17.64
2018-05-14T16:02:48.710Z,17.70
2018-05-14T16:05:52.753Z,17.61
2018-05-14T16:08:56.031Z,17.68
2018-05-14T16:12:00.054Z,17.64
2018-05-14T16:15:04.676Z,17.64
2018-05-14T16:18:08.168Z,17.59
2018-05-14T16:21:11.465Z,17.63
2018-05-14T16:24:14.729Z,17.59
2018-05-14T16:27:18.099Z,17.62
2018-05-14T16:30:22.114Z,17.56
2018-05-14T16:33:26.165Z,17.62
2018-05-14T16:36:29.426Z,17.58
2018-05-14T16:39:32.759Z,17.58
2018-05-14T16:42:36.819Z,17.55
2018-05-14T16:45:40.074Z,17.48
2018-05-14T16:48:43.343Z,17.43
2018-05-14T16:51:46.698Z,17.44
2018-05-14T16:54:50.735Z,17.56
2018-05-14T16:57:54.077Z,17.57
2018-05-14T17:00:57.281Z,17.65
2018-05-14T17:04:00.542Z,17.56
2018-05-14T17:07:04.573Z,17.57
2018-05-14T17:10:08.658Z,17.56
2018-05-14T17:13:13.465Z,17.49
2018-05-14T17:16:16.752Z,17.42
2018-05-14T17:19:20.773Z,17.40
2018-05-14T17:22:24.805Z,17.45
2018-05-14T17:25:29.943Z,17.35
2018-05-14T17:28:33.982Z,17.36
2018-05-14T17:31:37.251Z,17.33
2018-05-14T17:34:41.302Z,17.26
2018-05-14T17:37:44.571Z,17.23
2018-05-14T17:40:47.889Z,17.23
2018-05-14T17:43:51.374Z,17.27
2018-05-14T17:46:55.447Z,17.14
2018-05-14T17:49:58.741Z,17.08
2018-05-14T17:53:02.055Z,17.11
2018-05-14T17:56:05.323Z,17.18
2018-05-14T17:59:08.626Z,17.14
2018-05-14T18:02:11.900Z,17.03
2018-05-14T18:05:15.264Z,17.06
2018-05-14T18:08:18.493Z,17.03
2018-05-14T18:11:21.749Z,16.92
2018-05-14T18:14:25.017Z,16.90
2018-05-14T18:17:28.480Z,16.68
2018-05-14T18:20:32.426Z,16.65
2018-05-14T18:23:41.144Z,16.59
2018-05-14T18:26:46.194Z,16.46
2018-05-14T18:29:55.267Z,16.41
2018-05-14T18:33:02.393Z,16.23
2018-05-14T18:36:05.652Z,16.30
2018-05-14T18:39:08.975Z,16.21
2018-05-14T18:42:13.060Z,16.15
2018-05-14T18:45:16.336Z,16.21
2018-05-14T18:48:20.385Z,16.05
2018-05-14T18:51:23.713Z,16.08
2018-05-14T18:54:27.015Z,16.13
2018-05-14T18:57:30.281Z,16.12
2018-05-14T19:00:33.671Z,16.09
2018-05-14T19:03:37.346Z,16.01
2018-05-14T19:06:40.615Z,16.05
2018-05-14T19:09:43.873Z,15.93
2018-05-14T19:12:47.961Z,15.98
2018-05-14T19:15:56.876Z,16.09
2018-05-14T19:19:00.140Z,16.13
2018-05-14T19:22:03.400Z,16.09
2018-05-14T19:25:06.654Z,16.21
2018-05-14T19:28:15.659Z,16.17
2018-05-14T19:31:18.936Z,16.12
2018-05-14T19:34:27.734Z,16.14
2018-05-14T19:37:30.990Z,16.15
2018-05-14T19:40:40.493Z,16.14
2018-05-14T19:43:44.511Z,16.01
2018-05-14T19:46:48.928Z,16.03
2018-05-14T19:49:52.234Z,15.86
2018-05-14T19:52:55.684Z,15.90
2018-05-14T19:55:58.941Z,15.83
2018-05-14T19:59:02.204Z,15.83
2018-05-14T20:02:05.503Z,15.73
2018-05-14T20:05:09.943Z,15.82
2018-05-14T20:08:13.286Z,15.77
2018-05-14T20:11:16.552Z,15.76
2018-05-14T20:14:19.808Z,15.78
2018-05-14T20:17:23.838Z,15.62
2018-05-14T20:20:27.157Z,15.73
2018-05-14T20:23:31.894Z,15.79
2018-05-14T20:26:35.267Z,15.71
2018-05-14T20:29:38.905Z,15.57
2018-05-14T20:32:46.128Z,15.57
2018-05-14T20:35:49.857Z,15.62
2018-05-14T20:38:54.001Z,15.60
2018-05-14T20:41:58.325Z,15.39
2018-05-14T20:45:02.645Z,15.49
2018-05-14T20:48:05.911Z,15.49
2018-05-14T20:51:09.848Z,15.43
2018-05-14T20:54:13.377Z,15.52
2018-05-14T20:57:16.692Z,15.49
2018-05-14T21:00:21.676Z,15.50
2018-05-14T21:03:24.978Z,15.49
2018-05-14T21:06:28.258Z,15.46
2018-05-14T21:09:31.509Z,15.44
2018-05-14T21:12:37.361Z,15.46
2018-05-14T21:15:43.741Z,15.37
2018-05-14T21:18:54.780Z,15.28
2018-05-14T21:22:01.224Z,15.31
2018-05-14T21:25:05.173Z,15.36
2018-05-14T21:28:09.200Z,15.28
2018-05-14T21:31:12.548Z,15.39
2018-05-14T21:34:16.611Z,15.43
2018-05-14T21:37:20.713Z,15.45
2018-05-14T21:40:24.038Z,15.23
2018-05-14T21:43:27.502Z,15.33
2018-05-14T21:46:30.762Z,15.31
2018-05-14T21:49:34.742Z,15.44
2018-05-14T21:52:38.785Z,15.28
2018-05-14T21:55:42.267Z,15.40
2018-05-14T21:58:45.529Z,15.22
2018-05-14T22:01:48.803Z,15.30
2018-05-14T22:04:52.067Z,15.28
2018-05-14T22:07:55.327Z,15.26
2018-05-14T22:10:58.586Z,15.18
2018-05-14T22:14:01.834Z,15.16
2018-05-14T22:17:05.089Z,15.03
2018-05-14T22:20:09.119Z,15.02
2018-05-14T22:23:13.841Z,15.03
2018-05-14T22:26:17.880Z,14.92
2018-05-14T22:29:21.899Z,14.91
2018-05-14T22:32:25.361Z,14.88
2018-05-14T22:35:28.638Z,14.85
2018-05-14T22:38:32.676Z,14.68
2018-05-14T22:41:35.938Z,14.66
2018-05-14T22:44:39.965Z,14.78
2018-05-14T22:47:43.255Z,14.75
2018-05-14T22:50:47.756Z,14.46
2018-05-14T22:53:51.025Z,14.44
2018-05-14T22:56:55.048Z,14.45
2018-05-14T22:59:59.148Z,14.31
2018-05-14T23:03:02.407Z,14.16
2018-05-14T23:06:05.669Z,14.18
2018-05-14T23:09:08.942Z,14.11
2018-05-14T23:12:12.223Z,14.12
2018-05-14T23:15:15.493Z,13.93
2018-05-14T23:18:18.753Z,13.81
2018-05-14T23:21:22.785Z,13.74
2018-05-14T23:24:26.040Z,13.70
2018-05-14T23:27:29.312Z,13.69
2018-05-14T23:30:32.570Z,13.61
2018-05-14T23:33:35.832Z,13.45
2018-05-14T23:36:39.093Z,13.43
2018-05-14T23:39:42.357Z,13.45
2018-05-14T23:42:46.385Z,13.31
2018-05-14T23:45:49.660Z,13.29
2018-05-14T23:48:53.841Z,13.22
2018-05-14T23:51:57.106Z,13.15
2018-05-14T23:55:00.350Z,13.13
2018-05-14T23:58:03.641Z,13.15
